Time;durP1;ratioP1;P1;durP2;ratioP2;P2;SDS_P1;SDS_P2;PMS_P1;PMS_P2;Temp;Humidity;BMP_temperature;BMP_pressure;BME280_temperature;BME280_humidity;BME280_pressure;Samples;Min_cycle;Max_cycle;Signal;HPM_P1;HPM_P2
2023/09/10 00:00:42;;;;;;;;;;;26.20;75.40;;;26.38;47.43;98791.16;4924132;28;113945;-80
2023/09/10 00:03:08;;;;;;;;;;;26.20;75.60;;;26.33;47.08;98789.59;4918426;28;123196;-80
2023/09/10 00:05:38;;;;;;;;;;;26.10;75.60;;;26.29;47.55;98800.13;4937925;28;124312;-80
2023/09/10 00:08:04;;;;;;;;;;;26.10;75.80;;;26.27;47.29;98808.25;4921443;28;113859;-80
2023/09/10 00:10:31;;;;;;;;;;;26.10;75.90;;;26.25;47.38;98809.88;4945904;28;113522;-80
2023/09/10 00:12:57;;;;;;;;;;;26.00;76.00;;;26.22;47.67;98805.84;4922719;28;124551;-80
2023/09/10 00:15:26;;;;;;;;;;;26.00;76.20;;;26.20;47.88;98811.16;4959977;28;124380;-79
2023/09/10 00:17:52;;;;;;;;;;;26.00;76.50;;;26.19;47.96;98806.69;4929163;28;114782;-80
2023/09/10 00:20:18;;;;;;;;;;;26.00;76.70;;;26.16;47.98;98801.88;4942487;28;113916;-79
2023/09/10 00:22:45;;;;;;;;;;;25.90;76.80;;;26.14;47.70;98809.97;4948053;28;124408;-80
2023/09/10 00:25:13;;;;;;;;;;;25.90;77.60;;;26.10;48.27;98809.22;4913007;28;124189;-79
2023/09/10 00:27:40;;;;;;;;;;;25.90;77.10;;;26.06;47.83;98797.94;4924606;28;114403;-79
2023/09/10 00:30:06;;;;;;;;;;;25.80;77.20;;;26.05;48.31;98806.84;4925954;28;114546;-79
2023/09/10 00:32:33;;;;;;;;;;;25.80;77.30;;;26.04;48.25;98805.22;4933752;28;123241;-80
2023/09/10 00:35:03;;;;;;;;;;;25.80;77.50;;;26.03;47.96;98809.25;4934568;28;124028;-80
2023/09/10 00:37:29;;;;;;;;;;;25.80;77.60;;;25.99;48.07;98810.09;4936017;28;114632;-79
2023/09/10 00:39:55;;;;;;;;;;;25.70;77.70;;;25.97;48.43;98809.72;4943761;28;113863;-80
2023/09/10 00:42:28;;;;;;;;;;;25.70;77.90;;;25.93;48.56;98803.28;4931053;28;124599;-80
2023/09/10 00:44:54;;;;;;;;;;;25.70;78.00;;;25.91;48.47;98802.09;4935726;28;123979;-80
2023/09/10 00:47:21;;;;;;;;;;;25.70;78.10;;;25.90;48.75;98795.63;4947303;28;115740;-80
2023/09/10 00:49:49;;;;;;;;;;;25.70;78.20;;;25.89;48.29;98787.53;4926735;28;114430;-80
2023/09/10 00:52:16;;;;;;;;;;;25.70;78.50;;;25.87;48.30;98790.81;4938108;28;124797;-80
2023/09/10 00:54:43;;;;;;;;;;;25.60;78.50;;;25.86;48.80;98788.38;4925479;28;124181;-80
2023/09/10 00:57:09;;;;;;;;;;;25.60;78.70;;;25.83;48.66;98789.97;4955873;28;114427;-80
2023/09/10 00:59:38;;;;;;;;;;;25.60;78.80;;;25.80;48.83;98790.81;4936013;28;113928;-80
2023/09/10 01:02:04;;;;;;;;;;;25.60;78.90;;;25.78;48.90;98794.03;4957630;28;123317;-80
2023/09/10 01:04:33;;;;;;;;;;;25.50;79.00;;;25.76;48.72;98790.03;4931218;28;123926;-79
2023/09/10 01:07:02;;;;;;;;;;;25.50;79.10;;;25.74;48.54;98792.47;4930950;28;114466;-79
2023/09/10 01:09:31;;;;;;;;;;;25.50;79.10;;;25.72;48.66;98795.72;4948237;28;113820;-80
2023/09/10 01:12:44;;;;;;;;;;;25.50;79.30;;;25.67;48.81;98792.53;4943805;28;124859;-81
2023/09/10 01:15:16;;;;;;;;;;;25.50;79.40;;;25.66;48.99;98791.72;4912264;28;123768;-80
2023/09/10 01:18:13;;;;;;;;;;;25.40;79.60;;;25.64;48.72;98794.16;4944675;28;114628;-80
2023/09/10 01:20:56;;;;;;;;;;;25.40;79.70;;;25.60;48.82;98792.56;4945478;28;113880;-80
2023/09/10 01:23:55;;;;;;;;;;;25.40;79.90;;;25.53;49.28;98790.59;4948933;28;124547;-80
2023/09/10 01:26:21;;;;;;;;;;;25.30;80.00;;;25.54;49.24;98790.16;4936416;28;122790;-80
2023/09/10 01:28:49;;;;;;;;;;;25.30;80.20;;;25.54;49.28;98800.69;4918964;28;114321;-80
2023/09/10 01:31:17;;;;;;;;;;;25.30;80.30;;;25.52;49.58;98794.63;4941110;28;113742;-80
2023/09/10 01:33:56;;;;;;;;;;;25.30;80.50;;;25.48;49.14;98797.47;4943397;28;124916;-80
2023/09/10 01:36:40;;;;;;;;;;;25.30;80.70;;;25.45;49.65;98792.66;4931213;28;123929;-79
2023/09/10 01:39:25;;;;;;;;;;;25.20;80.80;;;25.41;49.27;98786.19;4947554;28;115629;-80
2023/09/10 01:41:52;;;;;;;;;;;25.20;80.90;;;25.40;49.74;98790.25;4942731;28;114956;-80
2023/09/10 01:44:20;;;;;;;;;;;25.20;81.10;;;25.39;49.56;98799.97;4923084;28;124739;-80
2023/09/10 01:46:50;;;;;;;;;;;25.10;81.20;;;25.36;49.44;98795.13;4913617;28;123104;-80
2023/09/10 01:49:17;;;;;;;;;;;25.10;81.30;;;25.34;49.55;98798.38;4942968;28;114451;-79
2023/09/10 01:51:43;;;;;;;;;;;25.10;81.50;;;25.34;49.49;98803.22;4930672;28;112573;-79
2023/09/10 01:54:13;;;;;;;;;;;25.10;81.60;;;25.32;50.14;98800.00;4944213;28;124320;-79
2023/09/10 01:56:39;;;;;;;;;;;25.10;82.00;;;25.31;49.72;98806.88;4927976;28;123897;-79
2023/09/10 01:59:06;;;;;;;;;;;25.10;82.00;;;25.30;50.30;98791.13;4929352;28;114196;-79
2023/09/10 02:01:37;;;;;;;;;;;25.10;82.20;;;25.28;49.96;98800.03;4940422;28;113683;-80
2023/09/10 02:04:04;;;;;;;;;;;25.00;82.40;;;25.26;49.96;98796.00;4948044;28;124187;-80
2023/09/10 02:06:30;;;;;;;;;;;25.00;82.50;;;25.25;49.94;98800.81;4933480;28;123229;-80
2023/09/10 02:08:57;;;;;;;;;;;25.00;82.60;;;25.23;49.96;98791.19;4922623;28;114154;-80
2023/09/10 02:11:27;;;;;;;;;;;25.00;82.70;;;25.20;50.00;98792.81;4955289;28;113409;-79
2023/09/10 02:13:53;;;;;;;;;;;24.90;82.70;;;25.18;50.05;98788.78;4946681;28;124319;-80
2023/09/10 02:16:27;;;;;;;;;;;24.90;82.90;;;25.14;50.21;98777.44;4950523;28;124446;-79
2023/09/10 02:18:54;;;;;;;;;;;24.90;82.90;;;25.12;50.44;98789.16;4940562;28;114203;-80
2023/09/10 02:21:20;;;;;;;;;;;24.90;83.10;;;25.10;50.31;98800.06;4947304;28;113564;-80
2023/09/10 02:23:55;;;;;;;;;;;24.90;83.30;;;25.07;50.68;98794.44;4927868;28;124277;-80
2023/09/10 02:26:22;;;;;;;;;;;24.80;83.30;;;25.03;50.67;98788.78;4953123;28;124213;-79
2023/09/10 02:28:54;;;;;;;;;;;24.80;83.50;;;25.03;50.63;98800.09;4943563;28;114312;-80
2023/09/10 02:31:28;;;;;;;;;;;24.80;83.70;;;25.01;50.91;98796.06;4927870;28;114637;-79
2023/09/10 02:34:00;;;;;;;;;;;24.80;83.90;;;24.98;50.60;98789.22;4956847;28;124435;-80
2023/09/10 02:36:28;;;;;;;;;;;24.70;84.00;;;24.96;50.76;98790.84;4940412;28;123234;-79
2023/09/10 02:38:54;;;;;;;;;;;24.70;84.10;;;24.94;50.76;98785.59;4932360;28;114505;-80
2023/09/10 02:41:21;;;;;;;;;;;24.70;84.20;;;24.90;50.85;98785.63;4949966;28;114019;-80
2023/09/10 02:43:51;;;;;;;;;;;24.70;84.40;;;24.88;50.73;98785.22;4950198;28;124153;-80
2023/09/10 02:46:17;;;;;;;;;;;24.60;84.40;;;24.87;51.04;98780.75;4949580;28;124486;-80
2023/09/10 02:48:43;;;;;;;;;;;24.60;84.50;;;24.86;50.91;98786.84;4950309;28;114368;-80
2023/09/10 02:51:09;;;;;;;;;;;24.60;84.80;;;24.84;51.33;98792.09;4937665;28;113868;-79
2023/09/10 02:53:39;;;;;;;;;;;24.60;84.90;;;24.83;51.35;98782.00;4946805;28;124160;-80
2023/09/10 02:56:05;;;;;;;;;;;24.50;84.90;;;24.80;51.31;98786.47;4937403;28;123210;-79
2023/09/10 02:58:32;;;;;;;;;;;24.50;85.10;;;24.79;51.24;98776.34;4930772;28;113590;-80
2023/09/10 03:01:05;;;;;;;;;;;24.50;85.30;;;24.77;51.14;98780.81;4937206;28;113031;-80
2023/09/10 03:03:32;;;;;;;;;;;24.50;85.40;;;24.75;51.46;98780.44;4939571;28;124169;-80
2023/09/10 03:05:58;;;;;;;;;;;24.50;85.50;;;24.74;51.49;98784.44;4935098;28;123925;-80
2023/09/10 03:08:27;;;;;;;;;;;24.40;85.50;;;24.72;51.17;98789.69;4960035;28;114796;-80
2023/09/10 03:10:54;;;;;;;;;;;24.50;85.70;;;24.69;51.44;98780.84;4947437;28;113208;-80
2023/09/10 03:13:20;;;;;;;;;;;24.50;85.80;;;24.68;51.37;98787.69;4968345;28;123113;-80
2023/09/10 03:15:56;;;;;;;;;;;24.40;85.80;;;24.67;51.54;98783.25;4951153;28;123945;-80
2023/09/10 03:18:22;;;;;;;;;;;24.40;86.00;;;24.64;51.72;98794.59;4925070;28;116190;-80
2023/09/10 03:20:51;;;;;;;;;;;24.40;86.30;;;24.63;51.94;98790.94;4932461;28;115040;-80
2023/09/10 03:23:20;;;;;;;;;;;24.40;86.60;;;24.61;51.98;98796.22;4950143;28;123885;-80
2023/09/10 03:25:46;;;;;;;;;;;24.30;86.80;;;24.59;52.23;98792.97;4931104;28;123904;-80
2023/09/10 03:28:18;;;;;;;;;;;24.30;87.10;;;24.57;52.38;98795.41;4931666;28;114080;-80
2023/09/10 03:30:45;;;;;;;;;;;24.90;87.90;;;24.53;52.43;98794.63;4936443;28;112647;-80
2023/09/10 03:33:11;;;;;;;;;;;24.30;87.60;;;24.52;52.42;98792.97;4953839;28;124169;-80
2023/09/10 03:35:42;;;;;;;;;;;24.30;87.80;;;24.49;52.68;98788.16;4945690;28;124291;-80
2023/09/10 03:38:08;;;;;;;;;;;24.20;87.90;;;24.47;52.53;98793.41;4942867;28;114583;-80
2023/09/10 03:40:40;;;;;;;;;;;24.20;88.10;;;24.46;53.01;98803.09;4936989;28;113738;-79
2023/09/10 03:43:06;;;;;;;;;;;24.20;88.30;;;24.43;52.76;98806.69;4936333;28;124248;-80
2023/09/10 03:45:33;;;;;;;;;;;24.20;88.40;;;24.39;52.65;98798.22;4936513;28;123833;-79
2023/09/10 03:47:59;;;;;;;;;;;24.10;88.30;;;24.35;52.41;98794.59;4943265;28;114372;-80
2023/09/10 03:50:33;;;;;;;;;;;24.10;88.20;;;24.31;52.58;98790.97;4946691;28;113688;-80
2023/09/10 03:53:07;;;;;;;;;;;24.10;88.30;;;24.29;52.87;98789.75;4958662;28;123688;-80
2023/09/10 03:55:33;;;;;;;;;;;24.00;89.00;;;24.27;52.83;98797.84;4928676;28;123392;-80
2023/09/10 03:58:00;;;;;;;;;;;24.00;88.50;;;24.24;52.58;98791.78;4949567;28;114387;-79
2023/09/10 04:00:29;;;;;;;;;;;24.00;88.70;;;24.21;52.78;98795.44;4948169;28;113557;-80
2023/09/10 04:02:55;;;;;;;;;;;24.00;88.90;;;24.18;52.96;98798.22;4940368;28;124228;-80
2023/09/10 04:05:21;;;;;;;;;;;24.00;89.00;;;24.17;53.20;98799.47;4935329;28;124079;-80
2023/09/10 04:07:52;;;;;;;;;;;23.90;89.20;;;24.16;53.26;98798.66;4961500;28;114447;-80
2023/09/10 04:10:21;;;;;;;;;;;23.90;89.40;;;24.14;53.56;98795.41;4922838;28;114238;-80
2023/09/10 04:12:50;;;;;;;;;;;23.90;89.50;;;24.14;53.42;98797.44;4931546;28;124922;-81
2023/09/10 04:15:17;;;;;;;;;;;23.90;89.70;;;24.11;53.29;98796.25;4938825;28;123898;-80
2023/09/10 04:17:46;;;;;;;;;;;23.90;89.90;;;24.08;53.36;98799.88;4946584;28;114722;-80
2023/09/10 04:20:19;;;;;;;;;;;23.80;89.90;;;24.06;53.38;98807.13;4950453;28;113704;-80
2023/09/10 04:22:46;;;;;;;;;;;23.80;90.00;;;24.04;53.55;98807.50;4940680;28;123499;-80
2023/09/10 04:25:13;;;;;;;;;;;23.80;90.00;;;24.01;53.33;98797.84;4938205;28;124286;-79
2023/09/10 04:27:41;;;;;;;;;;;23.80;90.10;;;24.00;53.39;98795.44;4930826;28;114242;-81
2023/09/10 04:30:09;;;;;;;;;;;23.70;90.10;;;23.98;53.67;98803.50;4954412;28;112977;-81
2023/09/10 04:32:36;;;;;;;;;;;23.70;90.10;;;23.99;53.53;98802.28;4950209;28;123893;-80
2023/09/10 04:35:04;;;;;;;;;;;23.70;90.10;;;23.98;53.34;98814.78;4950071;28;124183;-80
2023/09/10 04:37:34;;;;;;;;;;;23.70;90.10;;;23.97;53.37;98807.53;4937438;28;114531;-80
2023/09/10 04:40:05;;;;;;;;;;;23.70;90.20;;;23.95;53.35;98809.94;4949360;28;113934;-80
2023/09/10 04:42:35;;;;;;;;;;;23.70;90.20;;;23.92;53.52;98810.75;4930156;28;125048;-80
2023/09/10 04:45:03;;;;;;;;;;;23.60;90.20;;;23.87;53.66;98811.94;4935432;28;124018;-81
2023/09/10 04:47:33;;;;;;;;;;;23.60;90.20;;;23.84;53.87;98806.31;4930389;28;114387;-80
2023/09/10 04:50:03;;;;;;;;;;;23.60;90.40;;;23.79;53.85;98805.50;4945612;28;113610;-81
2023/09/10 04:52:33;;;;;;;;;;;23.60;90.40;;;23.75;54.15;98810.34;4918676;28;124928;-81
2023/09/10 04:55:02;;;;;;;;;;;23.50;90.40;;;23.74;54.24;98822.81;4929878;28;123396;-80
2023/09/10 04:57:36;;;;;;;;;;;23.50;90.50;;;23.74;54.24;98816.38;4929652;28;114436;-81
2023/09/10 05:00:03;;;;;;;;;;;23.50;90.60;;;23.72;54.28;98815.94;4916204;28;114168;-81
2023/09/10 05:02:29;;;;;;;;;;;23.50;90.70;;;23.70;54.33;98821.97;4949335;28;124960;-81
2023/09/10 05:04:58;;;;;;;;;;;23.50;90.70;;;23.69;54.15;98826.00;4918808;28;123902;-81
2023/09/10 05:07:24;;;;;;;;;;;23.40;90.80;;;23.68;54.53;98826.41;4951566;28;113681;-81
2023/09/10 05:09:50;;;;;;;;;;;23.40;90.80;;;23.65;54.48;98828.00;4947937;28;113518;-81
2023/09/10 05:12:16;;;;;;;;;;;23.40;90.80;;;23.63;54.43;98821.97;4939380;28;124017;-81
2023/09/10 05:14:45;;;;;;;;;;;23.40;90.90;;;23.60;54.58;98831.22;4930796;28;123902;-81
2023/09/10 05:17:14;;;;;;;;;;;23.40;91.00;;;23.56;54.70;98836.03;4946623;28;115043;-81
2023/09/10 05:19:47;;;;;;;;;;;23.30;91.00;;;23.53;55.18;98832.00;4916743;28;112031;-81
2023/09/10 05:22:14;;;;;;;;;;;23.30;91.20;;;23.45;55.70;98838.81;4945112;28;124411;-81
2023/09/10 05:24:40;;;;;;;;;;;23.20;91.50;;;23.37;56.03;98843.66;4938297;28;123773;-81
2023/09/10 05:27:09;;;;;;;;;;;23.20;91.80;;;23.34;56.00;98838.78;4934399;28;114130;-82
2023/09/10 05:29:35;;;;;;;;;;;23.20;91.80;;;23.33;56.13;98837.19;4920942;28;113740;-81
2023/09/10 05:32:04;;;;;;;;;;;23.20;92.20;;;23.35;56.26;98840.44;4931216;28;124141;-81
2023/09/10 05:34:35;;;;;;;;;;;23.10;92.00;;;23.36;56.07;98839.22;4935150;28;124279;-82
2023/09/10 05:37:01;;;;;;;;;;;23.10;92.00;;;23.39;56.14;98846.06;4961782;28;114380;-81
2023/09/10 05:39:28;;;;;;;;;;;23.10;92.10;;;23.43;55.99;98840.44;4927227;28;112439;-81
2023/09/10 05:42:00;;;;;;;;;;;23.20;92.20;;;23.47;55.81;98841.25;4945365;28;124138;-81
2023/09/10 05:44:29;;;;;;;;;;;23.20;92.10;;;23.49;55.77;98844.50;4937079;28;123021;-81
2023/09/10 05:46:58;;;;;;;;;;;23.20;92.10;;;23.52;55.44;98843.69;4961176;28;113763;-81
2023/09/10 05:49:27;;;;;;;;;;;23.20;92.10;;;23.54;55.38;98839.28;4943938;28;114807;-82
2023/09/10 05:52:02;;;;;;;;;;;23.20;92.00;;;23.56;55.34;98838.84;4947200;28;124427;-82
2023/09/10 05:54:28;;;;;;;;;;;23.20;92.00;;;23.58;55.24;98834.44;4938693;28;123876;-82
2023/09/10 05:57:00;;;;;;;;;;;23.20;92.00;;;23.60;55.55;98842.50;4924796;28;114253;-82
2023/09/10 05:59:26;;;;;;;;;;;23.20;92.10;;;23.57;55.64;98835.66;4940128;28;113485;-82
2023/09/10 06:01:52;;;;;;;;;;;23.20;92.10;;;23.57;55.80;98851.78;4955633;28;124640;-82
2023/09/10 06:04:22;;;;;;;;;;;23.20;92.20;;;23.54;55.77;98836.44;4936828;28;123676;-82
2023/09/10 06:06:48;;;;;;;;;;;23.20;92.20;;;23.57;55.84;98846.94;4936285;28;115176;-82
2023/09/10 06:09:14;;;;;;;;;;;23.30;92.30;;;23.63;55.59;98847.34;4924966;28;112599;-82
2023/09/10 06:11:41;;;;;;;;;;;23.30;92.40;;;23.69;55.73;98848.56;4934046;28;124421;-82
2023/09/10 06:14:10;;;;;;;;;;;23.30;92.40;;;23.73;55.75;98849.41;4925583;28;123799;-82
2023/09/10 06:16:36;;;;;;;;;;;23.30;92.40;;;23.73;55.43;98859.91;4927078;28;115053;-82
2023/09/10 06:19:03;;;;;;;;;;;23.40;92.20;;;23.77;55.38;98853.03;4946397;28;113955;-81
2023/09/10 06:21:35;;;;;;;;;;;23.40;92.30;;;23.81;55.43;98859.50;4936875;28;124855;-82
2023/09/10 06:24:01;;;;;;;;;;;23.40;92.30;;;23.84;55.21;98852.25;4930584;28;125243;-81
2023/09/10 06:26:27;;;;;;;;;;;23.40;92.30;;;23.83;55.46;98852.66;4947815;28;114084;-81
2023/09/10 06:29:02;;;;;;;;;;;23.40;92.30;;;23.82;55.48;98846.22;4928536;28;113652;-81
2023/09/10 06:31:29;;;;;;;;;;;23.50;92.40;;;23.81;55.66;98853.88;4946460;28;124271;-81
2023/09/10 06:33:58;;;;;;;;;;;23.50;92.50;;;23.86;55.72;98851.84;4924769;28;123961;-81
2023/09/10 06:36:24;;;;;;;;;;;23.50;92.60;;;23.93;55.52;98851.88;4921097;28;115323;-80
2023/09/10 06:38:51;;;;;;;;;;;23.50;92.60;;;23.98;55.57;98859.94;4923495;28;114478;-81
2023/09/10 06:41:17;;;;;;;;;;;23.50;92.70;;;24.01;55.43;98856.31;4943764;28;124580;-81
2023/09/10 06:43:46;;;;;;;;;;;23.50;92.70;;;24.00;55.65;98852.69;4927549;28;123507;-80
2023/09/10 06:46:13;;;;;;;;;;;23.50;92.80;;;23.98;55.70;98857.13;4945000;28;113708;-81
2023/09/10 06:48:39;;;;;;;;;;;23.60;92.80;;;23.99;55.90;98861.53;4938696;28;113926;-81
2023/09/10 06:51:11;;;;;;;;;;;23.50;92.90;;;24.01;55.80;98859.13;4927271;28;124720;-81
2023/09/10 06:53:37;;;;;;;;;;;23.50;92.90;;;24.02;55.74;98866.41;4943328;28;123812;-82
2023/09/10 06:56:03;;;;;;;;;;;23.50;93.00;;;24.05;55.78;98870.44;4944879;28;114348;-81
2023/09/10 06:58:35;;;;;;;;;;;23.60;93.00;;;24.10;55.53;98865.22;4960131;28;112859;-81
2023/09/10 07:01:12;;;;;;;;;;;23.60;93.00;;;24.22;55.49;98866.81;4953941;28;124386;-81
2023/09/10 07:03:46;;;;;;;;;;;23.60;92.90;;;24.26;55.33;98864.81;4920624;28;124468;-82
2023/09/10 07:06:12;;;;;;;;;;;23.70;93.00;;;24.29;55.21;98871.66;4939347;28;114749;-81
2023/09/10 07:08:38;;;;;;;;;;;23.70;92.90;;;24.35;55.40;98872.88;4926313;28;114357;-82
2023/09/10 07:11:08;;;;;;;;;;;23.80;93.00;;;24.37;55.39;98874.09;4950801;28;123028;-81
2023/09/10 07:13:36;;;;;;;;;;;23.80;93.00;;;24.37;55.06;98881.75;4916737;28;123170;-81
2023/09/10 07:16:03;;;;;;;;;;;23.80;92.80;;;24.40;55.15;98872.47;4945303;28;114850;-81
2023/09/10 07:18:33;;;;;;;;;;;23.90;92.80;;;24.43;54.79;98874.50;4931865;28;113599;-81
2023/09/10 07:21:02;;;;;;;;;;;23.90;92.70;;;24.45;54.59;98872.91;4946503;28;124416;-81
2023/09/10 07:23:37;;;;;;;;;;;23.90;92.50;;;24.49;54.21;98872.91;4931103;28;124075;-80
2023/09/10 07:26:03;;;;;;;;;;;24.00;92.50;;;24.52;54.03;98876.94;4943289;28;115368;-81
2023/09/10 07:28:33;;;;;;;;;;;24.00;92.50;;;24.59;54.53;98879.75;4934395;28;114492;-81
2023/09/10 07:31:02;;;;;;;;;;;24.00;92.50;;;24.69;54.34;98876.13;4945393;28;123124;-81
2023/09/10 07:33:36;;;;;;;;;;;24.10;92.50;;;24.78;53.77;98870.84;4936342;28;124611;-81
2023/09/10 07:36:02;;;;;;;;;;;24.20;92.40;;;24.81;53.90;98883.34;4931861;28;114227;-81
2023/09/10 07:38:29;;;;;;;;;;;24.20;92.40;;;24.87;54.13;98876.06;4918331;28;112443;-81
2023/09/10 07:40:58;;;;;;;;;;;24.30;92.30;;;24.92;54.03;98873.63;4959925;28;124072;-81
2023/09/10 07:43:27;;;;;;;;;;;24.30;92.30;;;24.97;53.63;98880.09;4940487;28;124572;-81
2023/09/10 07:46:02;;;;;;;;;;;24.40;92.30;;;25.05;53.38;98881.69;4919149;28;114286;-81
2023/09/10 07:48:28;;;;;;;;;;;24.50;92.30;;;25.16;53.22;98887.34;4949233;28;113844;-80
2023/09/10 07:50:58;;;;;;;;;;;24.60;92.20;;;25.27;53.09;98888.09;4946256;28;124264;-81
2023/09/10 07:53:25;;;;;;;;;;;24.70;92.10;;;25.33;52.63;98886.47;4950573;28;123928;-80
2023/09/10 07:55:51;;;;;;;;;;;24.70;91.90;;;25.41;52.43;98888.03;4932082;28;114585;-81
2023/09/10 07:58:24;;;;;;;;;;;24.80;91.80;;;25.48;52.69;98885.19;4933743;28;113980;-80
2023/09/10 08:00:57;;;;;;;;;;;24.90;91.70;;;25.54;52.28;98891.22;4933778;28;123875;-81
2023/09/10 08:03:23;;;;;;;;;;;25.00;91.70;;;25.63;52.02;98887.94;4930681;28;124753;-81
2023/09/10 08:05:50;;;;;;;;;;;25.00;91.60;;;25.70;51.97;98888.72;4931846;28;115058;-80
2023/09/10 08:08:23;;;;;;;;;;;25.10;91.50;;;25.79;51.89;98882.59;4941337;28;113238;-81
2023/09/10 08:10:50;;;;;;;;;;;25.20;91.40;;;25.83;51.48;98886.22;4947470;28;124148;-79
2023/09/10 08:13:16;;;;;;;;;;;25.30;91.30;;;25.88;51.32;98891.47;4948240;28;123887;-81
2023/09/10 08:15:45;;;;;;;;;;;25.30;91.20;;;25.90;51.48;98889.06;4960541;28;115081;-80
2023/09/10 08:18:12;;;;;;;;;;;25.30;91.00;;;25.93;51.11;98891.06;4942528;28;115030;-81
2023/09/10 08:21:01;;;;;;;;;;;25.40;91.00;;;25.97;51.06;98886.16;4939620;28;125142;-82
2023/09/10 08:23:27;;;;;;;;;;;25.40;90.80;;;26.05;51.00;98891.78;4936246;28;124343;-82
2023/09/10 08:25:57;;;;;;;;;;;25.50;90.70;;;26.09;50.76;98889.75;4945972;28;114244;-82
2023/09/10 08:28:26;;;;;;;;;;;25.60;90.70;;;26.12;50.81;98891.75;4944835;28;113619;-80
2023/09/10 08:30:53;;;;;;;;;;;25.50;90.60;;;26.18;50.77;98888.03;4915423;28;124127;-81
2023/09/10 08:33:25;;;;;;;;;;;25.60;90.60;;;26.27;50.54;98890.41;4949082;28;123735;-79
2023/09/10 08:35:52;;;;;;;;;;;25.70;90.60;;;26.32;50.59;98889.94;4923328;28;114007;-81
2023/09/10 08:38:22;;;;;;;;;;;25.70;90.50;;;26.35;50.56;98889.13;4934095;28;113725;-79
2023/09/10 08:40:57;;;;;;;;;;;25.80;90.40;;;26.38;50.43;98893.13;4920775;28;124237;-79
2023/09/10 08:43:46;;;;;;;;;;;25.80;90.30;;;26.45;50.23;98887.44;4946021;28;123913;-78
2023/09/10 08:46:13;;;;;;;;;;;25.90;90.30;;;26.55;50.24;98882.94;4939372;28;114016;-78
2023/09/10 08:48:44;;;;;;;;;;;26.00;90.20;;;26.64;49.91;98886.88;4942066;28;113997;-79
2023/09/10 08:51:12;;;;;;;;;;;26.00;90.00;;;26.72;49.32;98895.31;4919813;28;124046;-79
2023/09/10 08:53:40;;;;;;;;;;;26.10;89.80;;;26.77;49.06;98881.50;4918198;28;123871;-78
2023/09/10 08:56:09;;;;;;;;;;;26.20;89.70;;;26.87;48.99;98889.09;4937523;28;114704;-78
2023/09/10 08:58:37;;;;;;;;;;;26.30;89.50;;;26.96;48.72;98890.63;4957996;28;114013;-78
2023/09/10 09:01:03;;;;;;;;;;;26.30;88.80;;;26.95;48.65;98889.00;4960797;28;124229;-82
2023/09/10 09:03:33;;;;;;;;;;;26.40;88.40;;;26.93;48.62;98888.63;4927872;28;122942;-79
2023/09/10 09:06:11;;;;;;;;;;;26.40;88.30;;;26.97;48.51;98876.00;4921169;28;115470;-80
2023/09/10 09:08:47;;;;;;;;;;;26.50;88.30;;;27.04;48.45;98873.09;4939930;28;114600;-81
2023/09/10 09:11:14;;;;;;;;;;;26.50;88.00;;;27.09;48.30;98883.19;4929713;28;123700;-80
2023/09/10 09:13:47;;;;;;;;;;;26.60;87.90;;;27.13;48.26;98874.63;4939867;28;123615;-80
2023/09/10 09:16:15;;;;;;;;;;;26.60;87.50;;;27.18;48.05;98877.84;4927508;28;113457;-80
2023/09/10 09:18:45;;;;;;;;;;;26.70;87.50;;;27.24;47.84;98876.16;4923403;28;113704;-80
2023/09/10 09:21:22;;;;;;;;;;;26.70;87.20;;;27.30;47.47;98871.63;4954253;28;124277;-80
2023/09/10 09:23:59;;;;;;;;;;;26.80;87.00;;;27.36;47.43;98879.69;4940815;28;123138;-80
2023/09/10 09:26:39;;;;;;;;;;;26.80;86.80;;;27.41;47.53;98873.53;4928257;28;114758;-79
2023/09/10 09:29:09;;;;;;;;;;;26.90;86.50;;;27.47;47.08;98869.78;4940131;28;113972;-80
2023/09/10 09:31:37;;;;;;;;;;;27.00;86.20;;;27.52;46.75;98869.31;4930126;28;124781;-79
2023/09/10 09:34:04;;;;;;;;;;;27.00;85.70;;;27.57;46.78;98865.22;4927543;28;124065;-80
2023/09/10 09:36:36;;;;;;;;;;;27.10;85.40;;;27.59;46.35;98859.88;4939454;28;114870;-81
2023/09/10 09:39:07;;;;;;;;;;;27.10;84.80;;;27.63;46.49;98857.81;4932815;28;113726;-81
2023/09/10 09:41:34;;;;;;;;;;;27.10;84.70;;;27.70;46.38;98859.75;4940206;28;124921;-80
2023/09/10 09:44:02;;;;;;;;;;;27.20;84.90;;;27.77;45.89;98851.94;4935795;28;124118;-80
2023/09/10 09:46:37;;;;;;;;;;;27.30;84.10;;;27.84;45.59;98851.06;4955780;28;114624;-79
2023/09/10 09:49:03;;;;;;;;;;;27.30;83.90;;;27.90;45.71;98843.66;4942202;28;112959;-79
2023/09/10 09:51:34;;;;;;;;;;;27.40;83.70;;;27.95;44.96;98843.19;4929705;28;124553;-79
2023/09/10 09:54:01;;;;;;;;;;;27.40;82.90;;;28.00;44.60;98841.91;4944591;28;122949;-80
2023/09/10 09:56:37;;;;;;;;;;;27.50;82.10;;;28.06;44.24;98850.75;4923630;28;114440;-80
2023/09/10 09:59:03;;;;;;;;;;;27.50;81.80;;;28.11;44.53;98845.38;4944285;28;114826;-80
2023/09/10 10:01:34;;;;;;;;;;;27.60;82.00;;;28.18;44.49;98836.75;4917055;28;123765;-80
2023/09/10 10:04:01;;;;;;;;;;;27.60;82.00;;;28.24;44.33;98839.91;4924372;28;122960;-79
2023/09/10 10:06:27;;;;;;;;;;;27.70;81.50;;;28.28;44.13;98832.09;4930334;28;114137;-80
2023/09/10 10:08:57;;;;;;;;;;;27.70;81.30;;;28.32;44.26;98830.00;4944447;28;113730;-80
2023/09/10 10:11:33;;;;;;;;;;;27.80;81.40;;;28.38;43.83;98833.97;4929785;28;124578;-81
2023/09/10 10:14:00;;;;;;;;;;;27.90;80.90;;;28.42;43.93;98828.19;4944767;28;124135;-78
2023/09/10 10:16:35;;;;;;;;;;;27.90;80.80;;;28.48;44.09;98826.53;4961069;28;114026;-77
2023/09/10 10:19:01;;;;;;;;;;;28.00;80.80;;;28.55;43.81;98826.38;4921435;28;113936;-78
2023/09/10 10:21:28;;;;;;;;;;;28.00;80.60;;;28.61;43.33;98830.34;4936237;28;123338;-77
2023/09/10 10:24:00;;;;;;;;;;;28.10;80.10;;;28.66;43.14;98823.34;4929981;28;124274;-79
2023/09/10 10:26:27;;;;;;;;;;;28.10;79.30;;;28.73;42.97;98820.38;4955837;28;113945;-79
2023/09/10 10:29:03;;;;;;;;;;;28.20;79.10;;;28.79;42.25;98823.50;4958578;28;113358;-77
2023/09/10 10:31:38;;;;;;;;;;;28.30;78.10;;;28.85;41.77;98821.75;4915421;28;124169;-78
2023/09/10 10:34:26;;;;;;;;;;;28.30;77.70;;;28.90;41.40;98812.72;4957909;28;123639;-79
2023/09/10 10:37:27;;;;;;;;;;;28.40;76.80;;;28.98;41.02;98814.19;4958956;28;114070;-79
2023/09/10 10:40:17;;;;;;;;;;;28.40;76.10;;;29.03;40.80;98801.50;4940407;28;113831;-78
2023/09/10 10:43:23;;;;;;;;;;;28.50;75.30;;;29.12;40.09;98798.88;4927020;28;124115;-78
2023/09/10 10:45:52;;;;;;;;;;;28.60;74.80;;;29.21;39.61;98796.28;4933027;28;122812;-78
2023/09/10 10:48:25;;;;;;;;;;;28.70;73.70;;;29.31;39.59;98802.97;4943251;28;115543;-78
2023/09/10 10:50:52;;;;;;;;;;;28.70;73.90;;;29.40;39.35;98806.03;4957933;28;114772;-75
2023/09/10 10:53:23;;;;;;;;;;;28.80;73.70;;;29.49;39.25;98800.53;4924346;28;123962;-78
2023/09/10 10:55:55;;;;;;;;;;;28.90;72.80;;;29.58;39.17;98799.13;4938413;28;123344;-76
2023/09/10 10:58:28;;;;;;;;;;;29.00;72.70;;;29.66;39.35;98798.56;4955901;28;114049;-76
2023/09/10 11:01:00;;;;;;;;;;;29.10;72.50;;;29.76;38.68;98785.31;4929626;28;113761;-74
2023/09/10 11:03:27;;;;;;;;;;;29.20;71.90;;;29.86;38.41;98787.09;4914748;28;124087;-74
2023/09/10 11:06:04;;;;;;;;;;;29.30;71.80;;;29.96;38.69;98779.56;4950182;28;123901;-74
2023/09/10 11:08:37;;;;;;;;;;;29.40;71.60;;;30.07;38.13;98784.97;4949281;28;114462;-81
2023/09/10 11:11:10;;;;;;;;;;;29.50;71.20;;;30.18;38.39;98782.66;4944430;28;114299;-75
2023/09/10 11:14:05;;;;;;;;;;;29.60;71.20;;;30.29;38.52;98785.25;4940921;28;124267;-77
2023/09/10 11:16:35;;;;;;;;;;;29.70;71.10;;;30.39;37.80;98778.47;4952490;28;122668;-75
2023/09/10 11:19:12;;;;;;;;;;;29.80;70.80;;;30.51;38.42;98776.94;4956918;28;115487;-80
2023/09/10 11:21:56;;;;;;;;;;;29.90;70.70;;;30.60;37.95;98777.09;4953794;28;113949;-76